Snow/Ice From: 23-10-2018 22:46 Until: 24-10-2018 08:00 warning for: Snow/Ice Level: Yellow info button
suomi:
Liikennesää: Ajokeli on huono tienpintojen jäätymisen vuoksi.

svenska:
Trafikvädret: Väglaget är dåligt p.g.a. tillfrysning av vägytor.

english:
Traffic weather warning: Bad road conditions are expected because of ice-covered roads. 


Thunder radar more information blitzortung!


Löydät sääaseman tiedot myös:

European Weather Network

Finland Weather Exchange

Weather Underground

AWEKAS



Weather Underground säähistoriasivu

Päivittäin yhteenveto Huhtikuu 5, 2017 Yksiköt:  Englantilaiset    Metriset   Molemmat
« Edellinen Päivä
Seuraava Päivä »
Päivittäin Viikoittain Kuukausittain Vuosittain Mukautettu
  Korkea: Matala: Keskiarvo:
Lämpötila: TemperatureF °F 31.3 °F 39.8 °F
Kastepiste: DewpointF °F 29.7 °F 35.3 °F
Kosteus: Humidity % 62 % 83 %
Tuulen nopeus: WindSpeedMPH mph 0.0 mph 2.2 mph
Tuulenpuuska: WindSpeedGustMPH mph - -
Tuuli:- - SSW
Ilmanpaine: PressureIn in 29.49 in -
Sade: 0.00 in    
Historical Graphs
 
 
Taulukkotiedot Huhtikuu 5, 2017
Aika Lämpötila Kastepiste Ilmanpaine Tuuli Tuulen nopeus Tuulenpuuska Kosteus Sademäärä (tunneittain)
TemperatureF °F DewpointF °F PressureIn in Calm     Humidity % HourlyPrecipIn in
00:00 40.5 °F 36.3 °F 29.72 in SSW 5.0 mph 13.0 mph 85 % 0.00 in
00:15 40.1 °F 36.0 °F 29.72 in SSW 5.0 mph 10.0 mph 85 % 0.00 in
00:30 40.1 °F 36.3 °F 29.71 in SSW 5.0 mph 13.0 mph 86 % 0.00 in
00:45 39.7 °F 36.0 °F 29.71 in SSW 4.0 mph 7.0 mph 86 % 0.00 in
01:00 39.6 °F 36.0 °F 29.70 in SSW 6.0 mph 14.0 mph 87 % 0.00 in
01:15 39.4 °F 35.8 °F 29.70 in SW 3.0 mph 8.0 mph 87 % 0.00 in
01:30 39.4 °F 35.8 °F 29.69 in SSW 4.0 mph 9.0 mph 87 % 0.00 in
01:45 39.4 °F 36.0 °F 29.69 in SSW 5.0 mph 11.0 mph 88 % 0.00 in
02:00 39.0 °F 35.8 °F 29.68 in SSW 5.0 mph 11.0 mph 88 % 0.00 in
02:15 38.8 °F 35.6 °F 29.68 in SSW 5.0 mph 11.0 mph 88 % 0.00 in
02:30 38.7 °F 35.4 °F 29.68 in SW 2.0 mph 7.0 mph 88 % 0.00 in
02:45 38.5 °F 35.4 °F 29.68 in SW 3.0 mph 10.0 mph 89 % 0.00 in
03:00 38.1 °F 35.2 °F 29.68 in SSW 2.0 mph 7.0 mph 89 % 0.00 in
03:15 37.9 °F 35.1 °F 29.67 in SSW 3.0 mph 8.0 mph 89 % 0.00 in
03:30 37.8 °F 35.1 °F 29.67 in SSW 3.0 mph 7.0 mph 90 % 0.00 in
03:45 37.6 °F 35.2 °F 29.66 in SSW 3.0 mph 8.0 mph 91 % 0.00 in
04:00 37.4 °F 35.1 °F 29.65 in South 1.0 mph 6.0 mph 91 % 0.00 in
04:15 37.2 °F 34.9 °F 29.65 in SSW 2.0 mph 6.0 mph 91 % 0.00 in
04:30 37.2 °F 34.9 °F 29.64 in South 1.0 mph 5.0 mph 91 % 0.00 in
04:45 37.0 °F 35.1 °F 29.64 in SSW 1.0 mph 9.0 mph 92 % 0.00 in
05:00 37.0 °F 35.1 °F 29.63 in SSW 2.0 mph 5.0 mph 92 % 0.00 in
05:15 37.0 °F 35.1 °F 29.62 in SSW 2.0 mph 6.0 mph 92 % 0.00 in
05:30 37.2 °F 35.4 °F 29.62 in SSW 2.0 mph 7.0 mph 93 % 0.00 in
05:45 37.2 °F 35.4 °F 29.61 in SSW 2.0 mph 6.0 mph 93 % 0.00 in
06:00 37.2 °F 35.4 °F 29.60 in SSW 1.0 mph 8.0 mph 93 % 0.00 in
06:15 37.4 °F 35.6 °F 29.59 in SSW 4.0 mph 8.0 mph 93 % 0.00 in
06:30 37.4 °F 35.6 °F 29.59 in SSW 2.0 mph 7.0 mph 93 % 0.00 in
06:45 37.6 °F 35.6 °F 29.58 in SSW 3.0 mph 8.0 mph 93 % 0.00 in
07:00 37.6 °F 35.8 °F 29.58 in SSW 2.0 mph 5.0 mph 93 % 0.00 in
07:15 37.8 °F 35.8 °F 29.58 in SW 2.0 mph 6.0 mph 93 % 0.00 in
07:30 37.8 °F 36.0 °F 29.57 in SSW 1.0 mph 4.0 mph 93 % 0.00 in
07:45 37.8 °F 36.0 °F 29.57 in SSW 1.0 mph 3.0 mph 93 % 0.00 in
08:00 37.8 °F 35.8 °F 29.57 in Calm   3.0 mph 93 % 0.00 in
08:15 37.8 °F 36.0 °F 29.56 in SSW 1.0 mph 4.0 mph 93 % 0.00 in
08:30 37.8 °F 36.0 °F 29.56 in Calm     93 % 0.00 in
08:45 37.8 °F 36.0 °F 29.56 in Calm     93 % 0.00 in
09:00 37.9 °F 36.1 °F 29.56 in Calm   3.0 mph 93 % 0.00 in
09:15 37.9 °F 36.1 °F 29.55 in South 1.0 mph 4.0 mph 93 % 0.00 in
09:30 38.1 °F 36.3 °F 29.55 in South 1.0 mph 4.0 mph 93 % 0.00 in
09:45 38.1 °F 36.3 °F 29.54 in South 2.0 mph 6.0 mph 93 % 0.00 in
10:00 38.3 °F 36.5 °F 29.54 in SSW 2.0 mph 8.0 mph 93 % 0.00 in
10:15 38.7 °F 36.7 °F 29.54 in SW 2.0 mph 5.0 mph 93 % 0.00 in
10:30 38.8 °F 36.9 °F 29.53 in SSW 1.0 mph 5.0 mph 92 % 0.00 in
10:45 39.4 °F 37.2 °F 29.53 in SSW 2.0 mph 7.0 mph 92 % 0.00 in
11:00 39.6 °F 37.0 °F 29.52 in SSW 2.0 mph 5.0 mph 91 % 0.00 in
11:15 41.0 °F 37.9 °F 29.51 in SSW 2.0 mph 6.0 mph 89 % 0.00 in
11:30 41.5 °F 37.9 °F 29.51 in South 2.0 mph 5.0 mph 87 % 0.00 in
11:45 42.4 °F 38.7 °F 29.51 in South 3.0 mph 7.0 mph 86 % 0.00 in
12:00 42.6 °F 38.5 °F 29.51 in SSW 3.0 mph 8.0 mph 85 % 0.00 in
12:15 42.6 °F 38.1 °F 29.51 in SSW 3.0 mph 9.0 mph 84 % 0.00 in
12:30 42.8 °F 37.9 °F 29.51 in SSW 3.0 mph 8.0 mph 83 % 0.00 in
12:45 43.9 °F 38.3 °F 29.50 in SSW 4.0 mph 9.0 mph 81 % 0.00 in
13:00 44.2 °F 38.1 °F 29.50 in South 2.0 mph 8.0 mph 79 % 0.00 in
13:15 43.7 °F 37.9 °F 29.50 in SSW 3.0 mph 7.0 mph 80 % 0.00 in
13:30 45.3 °F 37.8 °F 29.50 in SSW 4.0 mph 11.0 mph 75 % 0.00 in
13:45 46.2 °F 37.8 °F 29.49 in South 4.0 mph 11.0 mph 72 % 0.00 in
14:00 46.8 °F 38.7 °F 29.49 in SSW 4.0 mph 11.0 mph 73 % 0.00 in
14:15 46.0 °F 37.8 °F 29.49 in SSW 4.0 mph 11.0 mph 73 % 0.00 in
14:30 45.3 °F 37.2 °F 29.49 in SSW 5.0 mph 15.0 mph 73 % 0.00 in
14:45 45.0 °F 36.7 °F 29.50 in SSW 5.0 mph 11.0 mph 73 % 0.00 in
15:00 45.0 °F 36.9 °F 29.49 in SSW 4.0 mph 11.0 mph 73 % 0.00 in
15:15 45.1 °F 37.0 °F 29.50 in SSW 2.0 mph 10.0 mph 73 % 0.00 in
15:30 45.9 °F 37.4 °F 29.50 in SSW 3.0 mph 11.0 mph 72 % 0.00 in
15:45 47.5 °F 37.4 °F 29.50 in WSW 2.0 mph 8.0 mph 68 % 0.00 in
16:00 47.7 °F 37.2 °F 29.50 in WSW 1.0 mph 5.0 mph 67 % 0.00 in
16:15 47.5 °F 37.8 °F 29.49 in SSW 2.0 mph 7.0 mph 69 % 0.00 in
16:30 46.9 °F 36.5 °F 29.50 in SSW 3.0 mph 7.0 mph 67 % 0.00 in
16:45 47.3 °F 36.1 °F 29.50 in SW 2.0 mph 6.0 mph 65 % 0.00 in
17:00 46.2 °F 35.6 °F 29.50 in SSW 4.0 mph 9.0 mph 66 % 0.00 in
17:15 46.9 °F 35.4 °F 29.50 in SSW 4.0 mph 9.0 mph 64 % 0.00 in
17:30 47.1 °F 34.9 °F 29.50 in SW 3.0 mph 7.0 mph 62 % 0.00 in
17:45 46.2 °F 35.1 °F 29.50 in SSW 6.0 mph 13.0 mph 65 % 0.00 in
18:00 45.9 °F 35.1 °F 29.50 in SSW 4.0 mph 7.0 mph 66 % 0.00 in
18:15 45.3 °F 35.1 °F 29.51 in SSW 4.0 mph 8.0 mph 67 % 0.00 in
18:30 45.1 °F 35.6 °F 29.51 in SW 2.0 mph 5.0 mph 69 % 0.00 in
18:45 44.4 °F 35.2 °F 29.51 in SW 2.0 mph 6.0 mph 70 % 0.00 in
19:00 44.2 °F 35.1 °F 29.52 in SSW 3.0 mph 7.0 mph 70 % 0.00 in
19:15 44.1 °F 35.2 °F 29.52 in SSW 1.0 mph 4.0 mph 71 % 0.00 in
19:30 43.7 °F 34.9 °F 29.53 in Calm   1.0 mph 71 % 0.00 in
19:45 43.0 °F 35.6 °F 29.54 in Calm   1.0 mph 75 % 0.00 in
20:00 41.4 °F 35.2 °F 29.55 in Calm   1.0 mph 79 % 0.00 in
20:15 39.9 °F 35.2 °F 29.56 in Calm   1.0 mph 83 % 0.00 in
20:30 38.7 °F 35.1 °F 29.56 in Calm     87 % 0.00 in
20:45 37.8 °F 34.5 °F 29.57 in Calm     88 % 0.00 in
21:00 36.9 °F 34.0 °F 29.57 in Calm     89 % 0.00 in
21:15 36.3 °F 33.6 °F 29.57 in Calm     90 % 0.00 in
21:30 35.8 °F 33.3 °F 29.57 in Calm     91 % 0.00 in
21:45 35.2 °F 33.1 °F 29.58 in Calm     92 % 0.00 in
22:00 34.9 °F 32.7 °F 29.59 in Calm     92 % 0.00 in
22:15 34.3 °F 32.4 °F 29.58 in Calm     92 % 0.00 in
22:30 34.0 °F 32.0 °F 29.59 in Calm     92 % 0.00 in
22:45 33.3 °F 31.5 °F 29.59 in Calm     93 % 0.00 in
23:00 32.4 °F 30.2 °F 29.60 in Calm     92 % 0.00 in
23:15 31.5 °F 29.7 °F 29.60 in Calm     93 % 0.00 in
23:30 31.3 °F 29.7 °F 29.60 in Calm     94 % 0.00 in
23:45 31.5 °F 29.8 °F 29.60 in Calm     94 % 0.00 in
Esan sääasema
Terveisin Weather Underground - 2.75 mb

Alkuperäinen skripti  Jim McMurry - jmcmurry@mwt.net Sovitettu myös templatelle  Wim van der Kuil - Leuven-Template.eu

Laitteet joita käytämme:

Sääasema
Davis VP2

Sääasemaohjelma
Cumulus

Sääaseman tietokone
Asus EeePC

Palveluntarjoaja
Suncomet

Davis VP2

Cumulus

Asus EeePC

Suncomet